Time;durP1;ratioP1;P1;durP2;ratioP2;P2;SDS_P1;SDS_P2;PMS_P1;PMS_P2;Temp;Humidity;BMP_temperature;BMP_pressure;BME280_temperature;BME280_humidity;BME280_pressure;Samples;Min_cycle;Max_cycle;Signal;HPM_P1;HPM_P2
2022/01/18 00:00:55;;;;;;;18.73;5.03;;;10.00;80.50;;;;;;5096881;28;20024;-64
2022/01/18 00:03:21;;;;;;;25.00;5.60;;;9.90;80.50;;;;;;5095662;28;20028;-64
2022/01/18 00:05:50;;;;;;;19.33;5.05;;;9.90;80.50;;;;;;5096651;28;20032;-64
2022/01/18 00:08:17;;;;;;;20.60;4.65;;;9.90;80.50;;;;;;5095866;28;20395;-64
2022/01/18 00:10:43;;;;;;;24.08;6.15;;;10.00;80.60;;;;;;5095303;28;20092;-64
2022/01/18 00:13:24;;;;;;;23.52;4.25;;;9.90;80.60;;;;;;5096569;28;20410;-65
2022/01/18 00:18:33;;;;;;;21.58;4.60;;;9.90;80.70;;;;;;5087060;28;20060;-64
2022/01/18 00:23:25;;;;;;;19.20;5.05;;;9.90;80.80;;;;;;5095685;28;20035;-64
2022/01/18 00:25:54;;;;;;;19.63;5.55;;;9.90;80.80;;;;;;5096246;28;20042;-64
2022/01/18 00:28:23;;;;;;;25.63;4.95;;;9.90;80.90;;;;;;5084839;28;20040;-64
2022/01/18 00:31:23;;;;;;;24.25;5.82;;;9.90;81.00;;;;;;5096471;28;20032;-64
2022/01/18 00:39:05;;;;;;;22.48;4.72;;;9.80;81.10;;;;;;5092092;28;20032;-65
2022/01/18 00:41:30;;;;;;;20.65;5.10;;;9.80;81.20;;;;;;5096193;28;20423;-65
2022/01/18 00:43:56;;;;;;;17.38;4.57;;;9.80;81.20;;;;;;5094984;28;20146;-64
2022/01/18 00:46:23;;;;;;;20.38;5.35;;;9.80;81.30;;;;;;5097274;28;20356;-64
2022/01/18 00:48:52;;;;;;;20.33;5.60;;;9.80;81.40;;;;;;5096213;28;20482;-64
2022/01/18 00:51:18;;;;;;;22.42;5.50;;;9.80;81.40;;;;;;5097358;28;20126;-64
2022/01/18 00:53:45;;;;;;;21.50;5.70;;;9.80;81.50;;;;;;5095936;28;20058;-64
2022/01/18 00:58:42;;;;;;;24.30;5.63;;;9.80;82.20;;;;;;5095239;28;20452;-64
2022/01/18 01:01:09;;;;;;;22.48;6.10;;;9.80;81.70;;;;;;5095384;28;20024;-64
2022/01/18 01:03:35;;;;;;;17.13;5.03;;;9.80;81.70;;;;;;5094637;28;20395;-64
2022/01/18 01:06:03;;;;;;;24.25;6.00;;;9.80;81.70;;;;;;5095923;28;20032;-64
2022/01/18 01:08:28;;;;;;;19.02;4.88;;;9.80;81.80;;;;;;5094680;28;20443;-64
2022/01/18 01:10:54;;;;;;;22.83;5.88;;;9.80;82.10;;;;;;5093891;28;20078;-64
2022/01/18 01:13:20;;;;;;;23.27;5.20;;;9.80;81.80;;;;;;5094340;28;20028;-64
2022/01/18 01:33:25;;;;;;;22.45;5.72;;;9.60;82.10;;;;;;5094908;28;20286;-64
2022/01/18 01:35:05;;;;;;;27.45;5.53;;;9.70;82.10;;;;;;5085008;28;20101;-65
2022/01/18 01:43:11;;;;;;;22.75;5.97;;;9.60;82.20;;;;;;5094810;28;20113;-65
2022/01/18 01:45:36;;;;;;;26.55;6.35;;;9.60;82.20;;;;;;5093387;28;20033;-65
2022/01/18 01:48:03;;;;;;;30.23;7.75;;;9.60;82.20;;;;;;5093754;28;20124;-64
2022/01/18 01:50:42;;;;;;;23.95;5.60;;;9.60;82.20;;;;;;5093046;28;20024;-64
2022/01/18 01:53:07;;;;;;;24.38;6.05;;;9.60;82.30;;;;;;5094704;28;20384;-64
2022/01/18 01:55:33;;;;;;;22.23;5.43;;;9.60;82.30;;;;;;5094452;28;20034;-65
2022/01/18 01:57:59;;;;;;;25.15;5.50;;;9.60;82.30;;;;;;5093601;28;20125;-64
2022/01/18 02:00:24;;;;;;;19.38;6.18;;;9.60;82.30;;;;;;5093168;28;20441;-64
2022/01/18 02:02:50;;;;;;;21.35;6.68;;;9.60;82.40;;;;;;5094268;28;20067;-65
2022/01/18 02:05:16;;;;;;;19.02;5.57;;;9.60;82.40;;;;;;5094295;28;20424;-65
2022/01/18 02:07:42;;;;;;;26.25;6.57;;;9.60;82.40;;;;;;5094698;28;20032;-65
2022/01/18 02:10:10;;;;;;;25.02;6.22;;;9.60;82.40;;;;;;5094075;28;20410;-65
2022/01/18 02:12:36;;;;;;;22.45;6.43;;;9.60;82.40;;;;;;5093931;28;20059;-64
2022/01/18 02:15:11;;;;;;;18.85;6.88;;;9.60;82.40;;;;;;5094324;28;20360;-65
2022/01/18 02:23:20;;;;;;;19.70;6.03;;;9.60;82.50;;;;;;5081175;28;20085;-64
2022/01/18 02:25:46;;;;;;;24.40;6.40;;;9.60;82.50;;;;;;5092679;28;20028;-65
2022/01/18 02:28:12;;;;;;;22.45;6.15;;;9.60;82.50;;;;;;5094001;28;20055;-64
2022/01/18 02:30:38;;;;;;;18.98;6.15;;;9.60;82.50;;;;;;5092673;28;20329;-64
2022/01/18 02:33:04;;;;;;;26.02;6.40;;;9.50;82.50;;;;;;5093764;28;20028;-64
2022/01/18 02:35:34;;;;;;;23.80;5.93;;;9.60;82.60;;;;;;5092821;28;20040;-64
2022/01/18 02:38:00;;;;;;;31.48;7.05;;;9.50;82.60;;;;;;5093389;28;20111;-65
2022/01/18 02:40:26;;;;;;;25.23;7.03;;;9.50;82.60;;;;;;5092487;28;20113;-64
2022/01/18 02:42:58;;;;;;;21.23;7.30;;;9.50;82.60;;;;;;5093741;28;20028;-64
2022/01/18 02:45:24;;;;;;;23.27;7.43;;;9.50;82.60;;;;;;5093258;28;20069;-64
2022/01/18 02:47:50;;;;;;;30.40;7.45;;;9.50;82.60;;;;;;5093672;28;20028;-64
2022/01/18 02:50:17;;;;;;;19.25;6.25;;;9.50;82.60;;;;;;5093455;28;20317;-64
2022/01/18 02:52:43;;;;;;;17.65;5.65;;;9.50;82.60;;;;;;5075717;28;20024;-64
2022/01/18 02:55:09;;;;;;;22.23;5.68;;;9.50;82.50;;;;;;5093867;28;20035;-64
2022/01/18 02:57:43;;;;;;;21.52;5.05;;;9.60;82.50;;;;;;5092501;28;20040;-64
2022/01/18 03:00:25;;;;;;;25.63;6.60;;;9.60;82.50;;;;;;5075840;28;20059;-64
2022/01/18 03:05:35;;;;;;;28.35;7.68;;;9.60;83.00;;;;;;5094054;28;20036;-64
2022/01/18 03:08:00;;;;;;;16.40;5.75;;;9.60;82.30;;;;;;5093837;28;20036;-64
2022/01/18 03:10:26;;;;;;;29.13;8.00;;;9.60;82.30;;;;;;5092305;28;20028;-64
2022/01/18 03:12:51;;;;;;;22.35;7.03;;;9.60;82.30;;;;;;5092294;28;20509;-65
2022/01/18 03:15:17;;;;;;;24.45;8.32;;;9.60;82.40;;;;;;5109704;28;20068;-64
2022/01/18 03:17:43;;;;;;;22.65;7.15;;;9.50;82.30;;;;;;5074034;28;20028;-64
2022/01/18 03:20:12;;;;;;;28.80;7.82;;;9.50;82.30;;;;;;5088138;28;20073;-64
2022/01/18 03:22:37;;;;;;;20.90;7.57;;;9.50;82.40;;;;;;5092150;28;20020;-65
2022/01/18 03:28:06;;;;;;;25.38;7.35;;;9.50;82.40;;;;;;5093346;28;20171;-64
2022/01/18 03:30:34;;;;;;;20.88;6.57;;;9.50;82.40;;;;;;5092520;28;20097;-65
2022/01/18 03:33:00;;;;;;;26.75;7.43;;;9.50;82.50;;;;;;5083465;28;20107;-65
2022/01/18 03:35:26;;;;;;;24.02;8.00;;;9.50;83.10;;;;;;5093716;28;20064;-65
2022/01/18 03:37:52;;;;;;;25.52;7.90;;;9.50;82.40;;;;;;5095565;28;20063;-65
2022/01/18 03:40:18;;;;;;;25.85;8.90;;;9.50;83.00;;;;;;5097219;28;20111;-65
2022/01/18 03:42:47;;;;;;;26.60;8.10;;;9.50;83.00;;;;;;5095507;28;20028;-64
2022/01/18 03:45:19;;;;;;;33.67;9.45;;;9.50;82.30;;;;;;5097346;28;20028;-64
2022/01/18 03:47:46;;;;;;;26.58;7.60;;;9.50;82.40;;;;;;5096021;28;20028;-64
2022/01/18 03:50:13;;;;;;;25.00;7.10;;;9.50;82.40;;;;;;5097063;28;20032;-64
2022/01/18 03:52:40;;;;;;;21.58;6.95;;;9.50;82.40;;;;;;5097333;28;20028;-64
2022/01/18 03:55:07;;;;;;;21.23;6.30;;;9.50;82.40;;;;;;5097332;28;20359;-64
2022/01/18 03:57:33;;;;;;;24.23;6.93;;;9.50;82.40;;;;;;5095892;28;20107;-64
2022/01/18 03:59:59;;;;;;;19.52;5.80;;;9.50;82.30;;;;;;5096724;28;20171;-64
2022/01/18 04:02:25;;;;;;;25.08;6.00;;;9.50;82.30;;;;;;5096323;28;20059;-64
2022/01/18 04:04:51;;;;;;;19.60;6.30;;;9.50;82.30;;;;;;5095846;28;20031;-64
2022/01/18 04:07:16;;;;;;;22.70;6.25;;;9.50;82.30;;;;;;5095222;28;20019;-65
2022/01/18 04:09:42;;;;;;;20.77;5.78;;;9.50;82.30;;;;;;5096437;28;20188;-64
2022/01/18 04:12:08;;;;;;;24.20;6.93;;;9.50;82.20;;;;;;5096178;28;20062;-65
2022/01/18 04:14:34;;;;;;;25.48;5.35;;;9.50;82.20;;;;;;5095896;28;20472;-65
2022/01/18 04:17:10;;;;;;;23.80;5.57;;;9.50;82.20;;;;;;5095864;28;20138;-64
2022/01/18 04:27:47;;;;;;;23.10;5.82;;;9.50;82.20;;;;;;5095441;28;20349;-64
2022/01/18 04:30:13;;;;;;;21.65;6.43;;;9.40;82.20;;;;;;5095456;28;20043;-64
2022/01/18 04:32:38;;;;;;;25.02;6.10;;;9.40;82.20;;;;;;5095855;28;20365;-64
2022/01/18 04:35:04;;;;;;;18.80;5.90;;;9.40;82.20;;;;;;5094402;28;20024;-65
2022/01/18 04:37:30;;;;;;;30.42;7.10;;;9.40;82.30;;;;;;5095481;28;20406;-64
2022/01/18 04:39:57;;;;;;;27.92;6.82;;;9.40;82.30;;;;;;5095572;28;20151;-64
2022/01/18 04:42:57;;;;;;;30.58;5.90;;;9.40;82.30;;;;;;5095321;28;20449;-64
2022/01/18 04:50:51;;;;;;;21.30;6.35;;;9.40;82.40;;;;;;5095327;28;20046;-64
2022/01/18 04:53:17;;;;;;;24.38;5.88;;;9.40;82.40;;;;;;5095460;28;20024;-65
2022/01/18 04:55:43;;;;;;;18.60;6.18;;;9.40;82.50;;;;;;5095435;28;20039;-65
2022/01/18 04:58:08;;;;;;;22.17;6.03;;;9.40;82.50;;;;;;5094065;28;20060;-64
2022/01/18 05:00:35;;;;;;;27.05;6.82;;;9.40;82.50;;;;;;5094151;28;20024;-64
2022/01/18 05:03:00;;;;;;;21.63;6.35;;;9.40;82.50;;;;;;5077403;28;20032;-65
2022/01/18 05:05:29;;;;;;;19.88;6.50;;;9.30;82.50;;;;;;5094261;28;20084;-64
2022/01/18 05:08:00;;;;;;;16.00;5.43;;;9.40;82.50;;;;;;5092200;28;20028;-64
2022/01/18 05:10:28;;;;;;;22.65;5.72;;;9.30;82.40;;;;;;5090723;28;20448;-64
2022/01/18 05:12:56;;;;;;;19.90;5.32;;;9.30;82.40;;;;;;5091905;28;20024;-64
2022/01/18 05:18:57;;;;;;;17.08;5.63;;;9.30;82.50;;;;;;5094305;28;21376;-64
2022/01/18 05:23:32;;;;;;;19.45;6.90;;;9.30;82.50;;;;;;5094554;28;20036;-65
2022/01/18 05:25:57;;;;;;;15.20;5.18;;;9.30;82.50;;;;;;5093853;28;20093;-64
2022/01/18 05:28:23;;;;;;;17.00;6.45;;;9.20;82.50;;;;;;5093531;28;20369;-65
2022/01/18 05:30:48;;;;;;;21.42;5.18;;;9.30;82.50;;;;;;5095391;28;20036;-65
2022/01/18 05:33:14;;;;;;;26.05;6.07;;;9.30;82.50;;;;;;5093775;28;20063;-64
2022/01/18 05:35:40;;;;;;;19.45;6.40;;;9.20;82.40;;;;;;5093933;28;20440;-64
2022/01/18 05:38:06;;;;;;;21.63;5.75;;;9.20;82.40;;;;;;5093119;28;20040;-65
2022/01/18 05:40:32;;;;;;;18.48;5.47;;;9.20;82.40;;;;;;5094211;28;20060;-64
2022/01/18 05:42:57;;;;;;;18.65;5.05;;;9.20;82.40;;;;;;5094300;28;20052;-64
2022/01/18 05:45:23;;;;;;;16.30;5.32;;;9.20;82.40;;;;;;5093610;28;20024;-65
2022/01/18 05:47:49;;;;;;;19.17;5.13;;;9.20;82.30;;;;;;5094312;28;20043;-64
2022/01/18 05:50:15;;;;;;;16.50;5.60;;;9.20;82.40;;;;;;5094188;28;20356;-65
2022/01/18 05:52:41;;;;;;;20.52;5.60;;;9.20;82.50;;;;;;5094744;28;20359;-64
2022/01/18 05:55:08;;;;;;;14.82;5.63;;;9.20;82.40;;;;;;5094233;28;20028;-64
2022/01/18 05:57:34;;;;;;;16.65;6.10;;;9.20;82.40;;;;;;5093404;28;20064;-64
2022/01/18 06:00:05;;;;;;;17.90;5.65;;;9.20;82.40;;;;;;5079411;28;20051;-64
2022/01/18 06:08:05;;;;;;;17.52;5.50;;;9.20;82.30;;;;;;5094359;28;20020;-64
2022/01/18 06:10:31;;;;;;;19.45;5.93;;;9.20;82.30;;;;;;5093677;28;20024;-64
2022/01/18 06:12:57;;;;;;;19.33;5.57;;;9.20;82.30;;;;;;5065538;28;20058;-65
2022/01/18 06:15:24;;;;;;;15.02;4.80;;;9.10;82.30;;;;;;5075524;28;20044;-64
2022/01/18 06:17:49;;;;;;;14.93;4.88;;;9.10;82.30;;;;;;5076544;28;20032;-64
2022/01/18 06:20:15;;;;;;;17.52;5.72;;;9.10;82.30;;;;;;5093788;28;20496;-64
2022/01/18 06:22:40;;;;;;;18.15;5.00;;;9.10;82.30;;;;;;5094541;28;20024;-64
2022/01/18 06:25:07;;;;;;;15.15;4.97;;;9.10;82.30;;;;;;5088576;28;20405;-64
2022/01/18 06:27:32;;;;;;;15.50;5.30;;;9.10;82.30;;;;;;5089315;28;20055;-65
2022/01/18 06:29:58;;;;;;;13.75;4.40;;;9.10;82.20;;;;;;5093383;28;20420;-65
2022/01/18 06:32:24;;;;;;;12.70;4.47;;;9.10;82.20;;;;;;5094859;28;20062;-64
2022/01/18 06:34:50;;;;;;;12.25;5.00;;;9.10;82.10;;;;;;5091252;28;20071;-64
2022/01/18 06:37:16;;;;;;;16.98;5.38;;;9.10;82.10;;;;;;5093159;28;20032;-64
2022/01/18 06:39:42;;;;;;;12.00;4.13;;;9.10;82.00;;;;;;5092944;28;20028;-64
2022/01/18 06:42:10;;;;;;;16.95;4.13;;;9.10;82.00;;;;;;5094069;28;20086;-64
2022/01/18 06:44:36;;;;;;;11.93;3.83;;;9.10;81.90;;;;;;5089370;28;20027;-64
2022/01/18 06:47:01;;;;;;;11.02;3.58;;;9.10;81.90;;;;;;5093546;28;20098;-64
2022/01/18 06:49:27;;;;;;;15.43;4.38;;;9.10;81.90;;;;;;5088208;28;20024;-64
2022/01/18 06:51:53;;;;;;;12.85;4.82;;;9.10;81.80;;;;;;5077030;28;20025;-64
2022/01/18 06:54:18;;;;;;;15.88;5.32;;;9.10;81.80;;;;;;5091805;28;20457;-64
2022/01/18 06:56:48;;;;;;;18.30;4.78;;;9.10;81.90;;;;;;5091759;28;20043;-64
2022/01/18 06:59:15;;;;;;;15.88;5.55;;;9.00;81.80;;;;;;5093503;28;20148;-65
2022/01/18 07:01:41;;;;;;;18.45;4.82;;;9.10;81.80;;;;;;5092346;28;20024;-65
2022/01/18 07:04:07;;;;;;;16.50;5.05;;;9.10;81.80;;;;;;5092995;28;20024;-65
2022/01/18 07:06:34;;;;;;;16.73;5.43;;;9.10;81.80;;;;;;5093665;28;20020;-65
2022/01/18 07:09:00;;;;;;;17.02;6.65;;;9.10;81.90;;;;;;5093451;28;20141;-65
2022/01/18 07:11:26;;;;;;;18.67;7.15;;;9.00;81.80;;;;;;5094082;28;20429;-65
2022/01/18 07:13:52;;;;;;;21.95;7.10;;;9.00;81.90;;;;;;5096089;28;20036;-65
2022/01/18 07:16:18;;;;;;;15.05;6.43;;;9.00;82.00;;;;;;5096535;28;20051;-65
2022/01/18 07:18:44;;;;;;;18.35;7.25;;;9.00;82.10;;;;;;5098233;28;20036;-65
2022/01/18 07:21:09;;;;;;;20.98;8.13;;;9.00;82.10;;;;;;5097414;28;20039;-65
2022/01/18 07:23:36;;;;;;;19.75;7.32;;;9.00;82.10;;;;;;5097677;28;20038;-65
2022/01/18 07:26:02;;;;;;;15.30;6.90;;;9.00;82.10;;;;;;5098129;28;20115;-65
2022/01/18 07:28:28;;;;;;;19.63;8.98;;;9.00;82.20;;;;;;5079391;28;20052;-65
2022/01/18 07:30:53;;;;;;;18.13;8.40;;;9.00;82.30;;;;;;5095914;28;20020;-65
2022/01/18 07:33:20;;;;;;;23.08;9.40;;;9.00;82.30;;;;;;5097536;28;20401;-64
2022/01/18 07:35:46;;;;;;;21.92;8.32;;;9.00;82.40;;;;;;5097433;28;20028;-65
2022/01/18 07:38:15;;;;;;;18.42;7.47;;;9.00;82.30;;;;;;5096432;28;20397;-65
2022/01/18 07:40:42;;;;;;;20.77;8.77;;;9.00;82.40;;;;;;5097787;28;20020;-65
2022/01/18 07:43:09;;;;;;;16.33;7.30;;;9.00;82.40;;;;;;5096988;28;20089;-65
2022/01/18 07:45:35;;;;;;;15.18;6.55;;;9.00;82.40;;;;;;5091180;28;20047;-65
2022/01/18 07:48:01;;;;;;;17.25;6.95;;;9.00;82.40;;;;;;5097016;28;20036;-64
2022/01/18 07:50:27;;;;;;;14.30;6.60;;;9.00;82.30;;;;;;5096698;28;20322;-65
2022/01/18 07:52:52;;;;;;;14.90;6.30;;;9.00;82.30;;;;;;5095578;28;20043;-65
2022/01/18 07:55:18;;;;;;;15.63;7.20;;;9.00;82.10;;;;;;5072022;28;20431;-65
2022/01/18 07:57:44;;;;;;;14.18;6.25;;;9.10;82.00;;;;;;5095861;28;20103;-65
2022/01/18 08:00:14;;;;;;;17.50;6.55;;;9.10;81.90;;;;;;5095767;28;20452;-65
2022/01/18 08:02:41;;;;;;;17.20;6.57;;;9.10;81.90;;;;;;5087525;28;20414;-66
2022/01/18 08:05:09;;;;;;;14.55;6.45;;;9.10;81.80;;;;;;5096295;28;20478;-65
2022/01/18 08:07:34;;;;;;;15.77;6.88;;;9.10;81.70;;;;;;5095545;28;20043;-67
2022/01/18 08:10:01;;;;;;;19.52;7.47;;;9.10;81.60;;;;;;5095722;28;20032;-66
2022/01/18 08:12:26;;;;;;;18.13;7.53;;;9.10;81.60;;;;;;5095349;28;20097;-66
2022/01/18 08:14:55;;;;;;;19.08;7.78;;;9.10;81.70;;;;;;5096304;28;20043;-66
2022/01/18 08:17:22;;;;;;;16.10;7.00;;;9.10;81.70;;;;;;5096150;28;20043;-66
2022/01/18 08:19:48;;;;;;;16.60;6.75;;;9.00;81.70;;;;;;5095876;28;20403;-65
2022/01/18 08:22:14;;;;;;;18.20;7.55;;;9.00;81.80;;;;;;5096014;28;20357;-67
2022/01/18 08:24:40;;;;;;;14.52;7.55;;;9.00;81.80;;;;;;5095021;28;20028;-65
2022/01/18 08:27:06;;;;;;;22.42;9.38;;;8.90;81.80;;;;;;5078624;28;20028;-66
2022/01/18 08:29:32;;;;;;;18.05;7.38;;;8.90;81.80;;;;;;5093862;28;20067;-66
2022/01/18 08:31:57;;;;;;;18.65;6.88;;;8.90;81.90;;;;;;5091035;28;20036;-66
2022/01/18 08:34:23;;;;;;;20.45;7.82;;;8.90;81.90;;;;;;5077891;28;20122;-65
2022/01/18 08:36:50;;;;;;;17.63;8.07;;;8.90;81.80;;;;;;5095371;28;20032;-66
2022/01/18 08:39:16;;;;;;;17.90;8.18;;;8.90;81.80;;;;;;5095991;28;20111;-66
2022/01/18 08:41:41;;;;;;;22.38;8.30;;;8.80;81.80;;;;;;5096169;28;20487;-66
2022/01/18 08:44:07;;;;;;;18.92;8.02;;;8.80;81.90;;;;;;5078447;28;20044;-65
2022/01/18 08:46:33;;;;;;;17.80;7.32;;;8.80;82.00;;;;;;5095119;28;20381;-66
2022/01/18 08:48:58;;;;;;;15.95;6.40;;;8.80;81.90;;;;;;5095808;28;20115;-66
2022/01/18 08:51:24;;;;;;;13.90;6.25;;;8.80;81.80;;;;;;5095242;28;20071;-65
2022/01/18 08:53:50;;;;;;;14.10;6.78;;;8.80;81.90;;;;;;5095593;28;20072;-65
2022/01/18 08:56:21;;;;;;;17.05;7.90;;;8.80;81.90;;;;;;5085785;28;20020;-65
2022/01/18 08:58:48;;;;;;;14.75;6.32;;;8.80;81.90;;;;;;5095735;28;20413;-65
2022/01/18 09:01:15;;;;;;;16.70;7.20;;;8.80;82.00;;;;;;5095102;28;20055;-65
2022/01/18 09:03:41;;;;;;;16.45;7.15;;;8.70;81.90;;;;;;5092398;28;20024;-65
2022/01/18 09:06:12;;;;;;;15.48;6.90;;;8.70;81.90;;;;;;5093102;28;20032;-65
2022/01/18 09:08:38;;;;;;;15.40;6.90;;;8.70;81.90;;;;;;5095338;28;20039;-65
2022/01/18 09:11:04;;;;;;;14.40;7.10;;;8.70;82.00;;;;;;5095145;28;20047;-64
2022/01/18 09:13:33;;;;;;;13.70;6.45;;;8.70;81.90;;;;;;5095324;28;20024;-65
2022/01/18 09:16:00;;;;;;;14.77;5.88;;;8.80;82.00;;;;;;5094277;28;20441;-65
2022/01/18 09:18:25;;;;;;;13.10;5.73;;;8.80;81.90;;;;;;5093918;28;20082;-65
2022/01/18 09:20:51;;;;;;;14.30;5.97;;;8.80;81.90;;;;;;5093372;28;20411;-65
2022/01/18 09:23:17;;;;;;;14.85;7.47;;;8.80;81.80;;;;;;5094433;28;20032;-65
2022/01/18 09:25:42;;;;;;;14.48;6.90;;;8.80;81.90;;;;;;5094310;28;20379;-65
2022/01/18 09:28:08;;;;;;;13.45;6.07;;;8.80;81.80;;;;;;5094306;28;20048;-65
2022/01/18 09:30:35;;;;;;;13.75;5.97;;;8.80;81.80;;;;;;5092841;28;20036;-65
2022/01/18 09:33:04;;;;;;;14.35;6.13;;;8.80;81.80;;;;;;5076642;28;20081;-66
2022/01/18 09:35:29;;;;;;;12.57;6.03;;;8.80;81.80;;;;;;5092444;28;20028;-66
2022/01/18 09:37:55;;;;;;;12.30;5.85;;;8.80;81.70;;;;;;5093158;28;20027;-66
2022/01/18 09:40:23;;;;;;;13.00;5.32;;;8.80;81.70;;;;;;5094662;28;20024;-65
2022/01/18 09:43:00;;;;;;;15.88;5.97;;;8.80;81.70;;;;;;5094508;28;20024;-65
2022/01/18 09:45:27;;;;;;;12.88;5.28;;;8.80;81.70;;;;;;5077121;28;20024;-65
2022/01/18 09:47:56;;;;;;;10.70;4.78;;;8.80;81.70;;;;;;5093780;28;20039;-65
2022/01/18 09:50:31;;;;;;;10.55;4.65;;;8.80;81.80;;;;;;5095089;28;20024;-65
2022/01/18 09:52:58;;;;;;;10.63;4.60;;;8.80;81.70;;;;;;5092354;28;20106;-65
2022/01/18 09:55:29;;;;;;;9.98;5.28;;;8.80;81.70;;;;;;5095144;28;20110;-64
2022/01/18 09:57:55;;;;;;;13.38;5.43;;;8.80;81.70;;;;;;5094704;28;20115;-65
2022/01/18 10:00:22;;;;;;;11.60;5.13;;;8.80;81.60;;;;;;5094480;28;20024;-65
2022/01/18 10:02:48;;;;;;;10.38;5.20;;;8.80;81.60;;;;;;5093571;28;20024;-66
2022/01/18 10:05:23;;;;;;;12.50;5.25;;;8.80;81.50;;;;;;5091985;28;20362;-65
2022/01/18 10:08:12;;;;;;;15.00;5.93;;;8.80;81.40;;;;;;5093601;28;20050;-65
2022/01/18 10:10:42;;;;;;;10.57;4.50;;;8.80;81.40;;;;;;5095215;28;20445;-65
2022/01/18 10:13:13;;;;;;;13.60;5.75;;;8.70;81.50;;;;;;5095657;28;20024;-65
2022/01/18 10:15:39;;;;;;;13.30;4.93;;;8.70;81.40;;;;;;5095418;28;20077;-65
2022/01/18 10:18:07;;;;;;;11.13;4.13;;;8.70;81.50;;;;;;5094487;28;20032;-65
2022/01/18 10:20:46;;;;;;;11.32;4.28;;;8.70;81.40;;;;;;5095129;28;20039;-65
2022/01/18 10:23:20;;;;;;;11.43;4.78;;;8.70;81.30;;;;;;5094975;28;20444;-65
2022/01/18 10:25:46;;;;;;;12.82;5.85;;;8.70;81.30;;;;;;5094931;28;20040;-65
2022/01/18 10:28:34;;;;;;;12.38;4.70;;;8.60;81.30;;;;;;5093542;28;20052;-65
2022/01/18 10:31:06;;;;;;;12.45;4.90;;;8.60;81.30;;;;;;5094769;28;20055;-65
2022/01/18 10:33:38;;;;;;;12.50;4.93;;;8.60;81.40;;;;;;5094957;28;20031;-65
2022/01/18 10:36:14;;;;;;;;;;;8.60;81.40;;;;;;5095149;28;20047;-65
2022/01/18 10:38:45;;;;;;;15.75;5.07;;;8.60;81.40;;;;;;5094518;28;19919;-65
2022/01/18 10:41:34;;;;;;;12.50;5.47;;;8.60;81.50;;;;;;5094254;28;20028;-65
2022/01/18 10:44:14;;;;;;;10.15;4.70;;;8.60;81.50;;;;;;5094555;28;20119;-65
2022/01/18 10:46:47;;;;;;;14.48;5.57;;;8.60;81.50;;;;;;5078866;28;20028;-65
2022/01/18 10:49:46;;;;;;;14.63;6.28;;;8.70;81.50;;;;;;5097060;28;20096;-65
2022/01/18 10:52:22;;;;;;;13.45;5.78;;;8.60;81.50;;;;;;5098810;28;20032;-65
2022/01/18 10:54:54;;;;;;;14.10;6.70;;;8.60;81.60;;;;;;5098327;28;20361;-65
2022/01/18 10:57:26;;;;;;;13.50;6.07;;;8.70;81.70;;;;;;5098933;28;20165;-65
2022/01/18 11:00:01;;;;;;;;;;;8.60;81.70;;;;;;5097879;28;20044;-65
2022/01/18 11:02:27;;;;;;;12.02;5.85;;;8.60;81.70;;;;;;5098376;28;19945;-65
2022/01/18 11:04:55;;;;;;;15.90;5.22;;;8.60;81.80;;;;;;5097759;28;20024;-65
2022/01/18 11:07:28;;;;;;;10.75;4.72;;;8.60;81.80;;;;;;5097010;28;20024;-65
2022/01/18 11:10:00;;;;;;;10.50;5.22;;;8.60;81.80;;;;;;5097652;28;20027;-65
2022/01/18 11:12:29;;;;;;;10.80;4.90;;;8.70;81.90;;;;;;5097942;28;20136;-65
2022/01/18 11:15:05;;;;;;;10.30;5.25;;;8.70;81.90;;;;;;5097589;28;20064;-66
2022/01/18 11:17:39;;;;;;;13.48;5.57;;;8.60;81.80;;;;;;5098241;28;20036;-65
2022/01/18 11:20:06;;;;;;;13.20;5.43;;;8.60;81.80;;;;;;5096670;28;20020;-65
2022/01/18 11:22:31;;;;;;;12.70;5.72;;;8.70;82.50;;;;;;5098125;28;20024;-65
2022/01/18 11:25:01;;;;;;;11.75;5.53;;;8.70;81.80;;;;;;5097534;28;20023;-65
2022/01/18 11:27:29;;;;;;;13.57;5.63;;;8.70;81.70;;;;;;5093899;28;20025;-65
2022/01/18 11:29:56;;;;;;;11.27;4.90;;;8.70;81.70;;;;;;5093646;28;20051;-66
2022/01/18 11:32:25;;;;;;;11.40;5.30;;;8.70;81.70;;;;;;5094915;28;20024;-66
2022/01/18 11:35:09;;;;;;;12.18;5.25;;;8.70;81.70;;;;;;5097125;28;20028;-66
2022/01/18 11:37:57;;;;;;;10.40;5.00;;;8.70;81.70;;;;;;5096028;28;20077;-67
2022/01/18 11:40:24;;;;;;;10.07;3.83;;;8.70;81.70;;;;;;5097221;28;20111;-66
2022/01/18 11:42:53;;;;;;;14.18;4.93;;;8.70;81.50;;;;;;5097346;28;20094;-66
2022/01/18 11:45:24;;;;;;;12.50;5.38;;;8.80;81.40;;;;;;5096337;28;20433;-65
2022/01/18 11:48:10;;;;;;;15.38;5.20;;;8.80;81.20;;;;;;5097550;28;20043;-66
2022/01/18 11:50:49;;;;;;;12.88;5.45;;;8.80;81.10;;;;;;5097011;28;20028;-66
2022/01/18 11:54:05;;;;;;;11.40;5.10;;;8.80;81.20;;;;;;5097369;28;20428;-67
2022/01/18 11:56:36;;;;;;;12.40;5.33;;;8.80;81.10;;;;;;5096761;28;20358;-66
2022/01/18 11:59:19;;;;;;;14.43;5.00;;;8.80;81.10;;;;;;5095911;28;20128;-67
2022/01/18 12:01:54;;;;;;;15.73;5.85;;;8.90;81.10;;;;;;5095908;28;20035;-66
2022/01/18 12:04:54;;;;;;;14.27;6.40;;;8.90;81.00;;;;;;5094001;28;20073;-66
2022/01/18 12:07:36;;;;;;;13.05;5.72;;;8.90;81.00;;;;;;5092400;28;20032;-66
2022/01/18 12:10:09;;;;;;;13.27;5.60;;;8.90;81.00;;;;;;5097251;28;20036;-65
2022/01/18 12:12:41;;;;;;;16.13;6.28;;;8.90;80.90;;;;;;5097013;28;20032;-66
2022/01/18 12:15:15;;;;;;;12.35;5.47;;;8.90;80.90;;;;;;5095981;28;20112;-66
2022/01/18 12:18:04;;;;;;;14.40;5.80;;;8.90;81.00;;;;;;5091177;28;20031;-66
2022/01/18 12:20:45;;;;;;;14.35;6.10;;;8.90;80.90;;;;;;5097147;28;20020;-66
2022/01/18 12:23:18;;;;;;;14.98;6.88;;;8.90;81.00;;;;;;5096440;28;20356;-66
2022/01/18 12:25:57;;;;;;;16.92;7.05;;;8.80;80.90;;;;;;5096482;28;20453;-66
2022/01/18 12:34:34;;;;;;;15.27;6.13;;;8.80;81.10;;;;;;5076493;28;20361;-66
2022/01/18 12:37:39;;;;;;;19.08;5.55;;;8.80;81.20;;;;;;5095378;28;20027;-66
2022/01/18 12:40:05;;;;;;;15.30;5.88;;;8.90;81.10;;;;;;5093859;28;20438;-66
2022/01/18 12:45:05;;;;;;;14.48;6.72;;;9.00;80.90;;;;;;5096140;28;20020;-65
2022/01/18 12:47:34;;;;;;;13.60;6.22;;;9.00;80.70;;;;;;5095789;28;20426;-65
2022/01/18 12:50:01;;;;;;;13.85;6.65;;;9.10;80.70;;;;;;5094652;28;20082;-65
2022/01/18 12:52:43;;;;;;;14.75;6.97;;;9.10;80.60;;;;;;5095258;28;20458;-64
2022/01/18 12:55:24;;;;;;;14.25;6.18;;;9.10;80.40;;;;;;5095024;28;20028;-65
2022/01/18 12:58:17;;;;;;;13.60;5.82;;;9.10;80.30;;;;;;5099124;28;20112;-65
2022/01/18 13:00:55;;;;;;;12.38;5.10;;;9.10;80.40;;;;;;5083219;28;20035;-65
2022/01/18 13:03:25;;;;;;;10.02;4.50;;;9.00;80.40;;;;;;5095212;28;20028;-65
2022/01/18 13:05:55;;;;;;;14.90;5.68;;;9.10;80.50;;;;;;5095763;28;20043;-66
2022/01/18 13:08:24;;;;;;;13.32;5.25;;;9.10;80.40;;;;;;5093684;28;20043;-66
2022/01/18 13:10:52;;;;;;;13.75;5.40;;;9.10;80.40;;;;;;5093096;28;20039;-66
2022/01/18 13:13:22;;;;;;;14.82;5.65;;;9.20;80.40;;;;;;5089802;28;20063;-65
2022/01/18 13:24:11;;;;;;;10.88;5.50;;;9.20;80.20;;;;;;5092738;28;20077;-65
2022/01/18 13:26:44;;;;;;;12.93;5.85;;;9.30;80.20;;;;;;5094779;28;20103;-66
2022/01/18 13:29:18;;;;;;;15.15;5.50;;;9.30;80.20;;;;;;5093931;28;20051;-65
2022/01/18 13:31:47;;;;;;;14.02;6.85;;;9.30;80.10;;;;;;5093955;28;20112;-65
2022/01/18 13:34:15;;;;;;;18.15;6.38;;;9.30;80.10;;;;;;5093263;28;20040;-65
2022/01/18 13:37:03;;;;;;;16.63;6.65;;;9.40;80.10;;;;;;5094936;28;20036;-66
2022/01/18 13:39:49;;;;;;;14.00;7.05;;;9.40;80.00;;;;;;5064620;28;20027;-66
2022/01/18 13:42:17;;;;;;;15.93;7.10;;;9.40;79.90;;;;;;5093055;28;20025;-66
2022/01/18 13:45:28;;;;;;;18.35;7.00;;;9.50;79.90;;;;;;5087930;28;20028;-66
2022/01/18 13:48:06;;;;;;;15.88;6.45;;;9.50;79.70;;;;;;5077950;28;20093;-66
2022/01/18 13:50:41;;;;;;;17.75;7.70;;;9.50;79.80;;;;;;5094542;28;20035;-66
2022/01/18 13:53:28;;;;;;;18.55;7.65;;;9.40;79.70;;;;;;5092925;28;20028;-66
2022/01/18 13:55:59;;;;;;;15.90;6.97;;;9.50;79.80;;;;;;5093576;28;20036;-67
2022/01/18 13:58:40;;;;;;;16.85;7.43;;;9.50;79.90;;;;;;5076240;28;20032;-67
2022/01/18 14:01:18;;;;;;;15.68;7.18;;;9.50;79.90;;;;;;5094739;28;20498;-67
2022/01/18 14:03:45;;;;;;;20.00;7.70;;;9.50;79.80;;;;;;5093357;28;20023;-66
2022/01/18 14:06:14;;;;;;;18.60;7.60;;;9.50;79.70;;;;;;5092892;28;20127;-66
2022/01/18 14:08:42;;;;;;;17.42;7.60;;;9.50;79.70;;;;;;5093543;28;20066;-66
2022/01/18 14:11:10;;;;;;;16.10;6.50;;;9.60;79.80;;;;;;5093777;28;20024;-66
2022/01/18 14:13:38;;;;;;;19.40;6.38;;;9.50;79.70;;;;;;5090830;28;20042;-66
2022/01/18 14:16:24;;;;;;;20.13;7.00;;;9.50;79.70;;;;;;5092924;28;20063;-67
2022/01/18 14:19:08;;;;;;;21.38;7.00;;;9.60;79.60;;;;;;5089895;28;20397;-66
2022/01/18 14:21:45;;;;;;;17.73;7.47;;;9.60;79.60;;;;;;5091354;28;20071;-66
2022/01/18 14:24:20;;;;;;;15.82;6.88;;;9.60;79.50;;;;;;5092305;28;20020;-65
2022/01/18 14:26:52;;;;;;;17.85;6.10;;;9.60;79.50;;;;;;5088841;28;20033;-66
2022/01/18 14:29:23;;;;;;;18.40;6.57;;;9.70;79.50;;;;;;5092125;28;20363;-66